createdAt,value
2023-01-27T00:00:28.525Z,1.98
2023-01-27T00:02:55.178Z,2.03
2023-01-27T00:05:22.286Z,2.05
2023-01-27T00:07:49.898Z,2.14
2023-01-27T00:10:20.609Z,2.35
2023-01-27T00:13:06.671Z,2.14
2023-01-27T00:15:34.298Z,2.04
2023-01-27T00:18:01.403Z,2.18
2023-01-27T00:20:46.946Z,1.80
2023-01-27T00:23:43.054Z,2.00
2023-01-27T00:26:15.130Z,2.04
2023-01-27T00:28:43.174Z,2.19
2023-01-27T00:31:30.830Z,2.12
2023-01-27T00:34:02.173Z,1.77
2023-01-27T00:36:29.768Z,1.87
2023-01-27T00:38:56.888Z,1.70
2023-01-27T00:41:23.578Z,1.82
2023-01-27T00:43:52.994Z,1.76
2023-01-27T00:46:21.166Z,1.69
2023-01-27T00:48:48.599Z,1.80
2023-01-27T00:51:15.708Z,1.93
2023-01-27T00:53:42.466Z,1.69
2023-01-27T00:56:09.511Z,1.65
2023-01-27T00:58:36.293Z,1.48
2023-01-27T01:01:06.694Z,1.70
2023-01-27T01:03:35.118Z,1.70
2023-01-27T01:06:04.544Z,1.64
2023-01-27T01:08:32.862Z,1.97
2023-01-27T01:10:59.734Z,2.04
2023-01-27T01:13:28.357Z,2.10
2023-01-27T01:15:55.744Z,1.91
2023-01-27T01:18:23.010Z,2.18
2023-01-27T01:20:49.778Z,1.78
2023-01-27T01:23:16.634Z,1.80
2023-01-27T01:25:43.313Z,2.00
2023-01-27T01:28:10.191Z,2.12
2023-01-27T01:30:38.440Z,2.14
2023-01-27T01:33:05.128Z,2.05
2023-01-27T01:35:32.206Z,1.93
2023-01-27T01:37:59.193Z,1.78
2023-01-27T01:40:26.055Z,1.91
2023-01-27T01:43:03.615Z,1.91
2023-01-27T01:45:33.650Z,1.98
2023-01-27T01:48:07.007Z,1.94
2023-01-27T01:50:36.060Z,1.86
2023-01-27T01:53:04.843Z,1.93
2023-01-27T01:55:34.449Z,2.27
2023-01-27T01:58:02.730Z,2.36
2023-01-27T02:00:29.259Z,2.45
2023-01-27T02:12:05.736Z,2.16
2023-01-27T02:14:33.121Z,1.87
2023-01-27T02:16:59.687Z,1.91
2023-01-27T02:19:48.212Z,1.87
2023-01-27T02:22:24.448Z,2.05
2023-01-27T02:24:59.721Z,2.02
2023-01-27T02:27:26.253Z,2.38
2023-01-27T02:29:52.837Z,2.27
2023-01-27T02:32:24.220Z,2.07
2023-01-27T02:34:51.029Z,2.25
2023-01-27T02:37:18.726Z,2.16
2023-01-27T02:39:48.790Z,1.99
2023-01-27T02:42:17.094Z,1.99
2023-01-27T02:44:43.640Z,1.79
2023-01-27T02:47:10.265Z,1.86
2023-01-27T02:49:36.807Z,2.11
2023-01-27T02:52:03.493Z,2.15
2023-01-27T02:54:30.773Z,1.94
2023-01-27T02:56:57.365Z,1.87
2023-01-27T02:59:23.911Z,2.16
2023-01-27T03:01:50.841Z,2.00
2023-01-27T03:04:17.430Z,1.97
2023-01-27T03:06:44.053Z,1.95
2023-01-27T03:09:10.671Z,2.01
2023-01-27T03:11:55.506Z,2.05
2023-01-27T03:14:22.236Z,1.98
2023-01-27T03:17:07.560Z,1.82
2023-01-27T03:19:34.174Z,1.78
2023-01-27T03:22:01.899Z,1.75
2023-01-27T03:24:28.581Z,1.86
2023-01-27T03:26:55.271Z,1.60
2023-01-27T03:29:40.434Z,1.88
2023-01-27T03:32:07.243Z,2.01
2023-01-27T03:34:33.779Z,1.76
2023-01-27T03:37:18.585Z,1.90
2023-01-27T03:40:03.818Z,1.80
2023-01-27T03:42:48.949Z,1.87
2023-01-27T03:45:34.197Z,1.84
2023-01-27T03:48:00.865Z,1.85
2023-01-27T03:50:37.620Z,1.82
2023-01-27T03:53:05.576Z,1.72
2023-01-27T03:55:34.075Z,1.92
2023-01-27T03:58:19.362Z,1.67
2023-01-27T04:00:50.452Z,1.86
2023-01-27T04:03:35.780Z,1.84
2023-01-27T04:06:32.044Z,1.88
2023-01-27T04:08:59.126Z,1.73
2023-01-27T04:11:44.601Z,1.70
2023-01-27T04:14:12.503Z,1.71
2023-01-27T04:16:39.601Z,1.85
2023-01-27T04:19:07.692Z,1.91
2023-01-27T04:21:34.940Z,2.09
2023-01-27T04:24:02.352Z,2.06
2023-01-27T04:26:34.516Z,1.96
2023-01-27T04:29:02.709Z,2.00
2023-01-27T04:31:29.413Z,2.01
2023-01-27T04:33:56.658Z,2.26
2023-01-27T04:36:23.382Z,1.81
2023-01-27T04:38:49.987Z,1.94
2023-01-27T04:41:16.550Z,1.88
2023-01-27T04:43:43.214Z,1.84
2023-01-27T04:46:09.916Z,1.62
2023-01-27T04:48:36.551Z,1.61
2023-01-27T04:51:03.239Z,1.67
2023-01-27T04:53:29.828Z,1.67
2023-01-27T04:56:03.624Z,1.82
2023-01-27T04:58:30.202Z,1.86
2023-01-27T05:00:56.815Z,2.01
2023-01-27T05:03:23.460Z,1.96
2023-01-27T05:05:50.111Z,1.86
2023-01-27T05:08:16.811Z,1.83
2023-01-27T05:10:45.345Z,1.60
2023-01-27T05:13:12.423Z,1.59
2023-01-27T05:15:39.057Z,1.46
2023-01-27T05:18:05.707Z,1.59
2023-01-27T05:20:32.491Z,1.84
2023-01-27T05:23:19.039Z,1.87
2023-01-27T05:25:45.645Z,1.59
2023-01-27T05:28:12.610Z,1.42
2023-01-27T05:30:39.563Z,1.69
2023-01-27T05:33:08.211Z,1.53
2023-01-27T05:35:35.459Z,1.48
2023-01-27T05:38:02.064Z,1.60
2023-01-27T05:40:28.849Z,1.51
2023-01-27T05:42:55.418Z,1.60
2023-01-27T05:45:22.030Z,1.53
2023-01-27T05:47:50.695Z,1.48
2023-01-27T05:50:18.360Z,1.40
2023-01-27T05:52:45.796Z,1.51
2023-01-27T05:55:12.865Z,1.74
2023-01-27T05:57:39.571Z,1.69
2023-01-27T06:00:06.865Z,1.87
2023-01-27T06:02:33.511Z,1.68
2023-01-27T06:05:00.111Z,1.57
2023-01-27T06:07:26.654Z,1.68
2023-01-27T06:09:53.265Z,1.75
2023-01-27T06:12:19.871Z,1.82
2023-01-27T06:14:46.387Z,1.93
2023-01-27T06:17:13.013Z,1.60
2023-01-27T06:19:39.594Z,1.71
2023-01-27T06:22:06.110Z,1.84
2023-01-27T06:24:32.782Z,1.64
2023-01-27T06:26:59.399Z,1.65
2023-01-27T06:29:25.898Z,1.78
2023-01-27T06:31:52.648Z,1.84
2023-01-27T06:34:19.320Z,1.61
2023-01-27T06:36:45.848Z,1.63
2023-01-27T06:39:12.945Z,1.73
2023-01-27T06:41:39.707Z,1.65
2023-01-27T06:44:06.216Z,1.73
2023-01-27T06:46:33.006Z,1.64
2023-01-27T06:48:59.754Z,1.74
2023-01-27T06:51:26.296Z,1.90
2023-01-27T06:53:52.837Z,1.75
2023-01-27T06:56:19.473Z,2.00
2023-01-27T06:58:46.078Z,1.65
2023-01-27T07:01:12.721Z,1.45
2023-01-27T07:03:39.290Z,1.62
2023-01-27T07:06:06.274Z,1.60
2023-01-27T07:08:32.887Z,1.71
2023-01-27T07:11:03.594Z,1.62
2023-01-27T07:13:30.526Z,1.86
2023-01-27T07:15:57.279Z,1.49
2023-01-27T07:18:23.975Z,1.78
2023-01-27T07:20:50.516Z,1.89
2023-01-27T07:23:17.081Z,2.05
2023-01-27T07:25:44.646Z,2.06
2023-01-27T07:28:11.186Z,1.94
2023-01-27T07:30:39.427Z,1.97
2023-01-27T07:33:12.036Z,1.93
2023-01-27T07:35:39.823Z,1.94
2023-01-27T07:38:07.167Z,1.76
2023-01-27T07:40:33.825Z,1.94
2023-01-27T07:43:01.084Z,1.99
2023-01-27T07:45:28.918Z,1.76
2023-01-27T07:48:01.218Z,1.67
2023-01-27T07:50:27.826Z,1.74
2023-01-27T07:52:54.479Z,1.82
2023-01-27T07:55:21.175Z,1.57
2023-01-27T07:57:47.711Z,1.58
2023-01-27T08:00:15.710Z,1.76
2023-01-27T08:02:42.373Z,1.78
2023-01-27T08:05:09.264Z,1.95
2023-01-27T08:07:35.923Z,1.87
2023-01-27T08:10:02.510Z,1.94
2023-01-27T08:12:29.021Z,1.88
2023-01-27T08:14:55.633Z,1.67
2023-01-27T08:17:22.259Z,1.72
2023-01-27T08:19:50.636Z,1.94
2023-01-27T08:22:21.115Z,2.14
2023-01-27T08:24:50.436Z,1.84
2023-01-27T08:27:17.791Z,1.64
2023-01-27T08:29:44.575Z,1.87
2023-01-27T08:32:12.838Z,1.90
2023-01-27T08:34:41.727Z,1.78
2023-01-27T08:37:09.036Z,1.90
2023-01-27T08:39:35.730Z,2.03
2023-01-27T08:42:02.241Z,1.82
2023-01-27T08:44:29.153Z,1.82
2023-01-27T08:46:55.831Z,1.95
2023-01-27T08:49:22.346Z,1.98
2023-01-27T08:51:48.920Z,2.01
2023-01-27T08:54:15.636Z,1.96
2023-01-27T08:56:42.170Z,1.58
2023-01-27T08:59:08.760Z,1.90
2023-01-27T09:01:35.504Z,1.96
2023-01-27T09:04:02.058Z,2.12
2023-01-27T09:06:28.677Z,2.28
2023-01-27T09:09:12.026Z,2.29
2023-01-27T09:11:43.323Z,2.24
2023-01-27T09:14:10.855Z,2.13
2023-01-27T09:16:37.712Z,2.01
2023-01-27T09:19:04.444Z,2.16
2023-01-27T09:21:31.692Z,2.20
2023-01-27T09:23:58.302Z,2.13
2023-01-27T09:26:24.986Z,2.39
2023-01-27T09:28:51.637Z,2.45
2023-01-27T09:31:18.495Z,2.37
2023-01-27T09:33:45.351Z,2.08
2023-01-27T09:36:15.708Z,2.12
2023-01-27T09:38:48.694Z,2.14
2023-01-27T09:41:36.948Z,1.96
2023-01-27T09:44:28.057Z,2.16
2023-01-27T09:47:12.779Z,2.35
2023-01-27T09:50:01.265Z,2.43
2023-01-27T09:52:47.985Z,2.23
2023-01-27T09:55:42.941Z,2.24
2023-01-27T09:58:43.440Z,2.29
2023-01-27T10:01:27.635Z,2.39
2023-01-27T10:04:00.377Z,2.44
2023-01-27T10:06:45.342Z,2.11
2023-01-27T10:09:41.173Z,2.30
2023-01-27T10:12:37.375Z,2.41
2023-01-27T10:15:07.034Z,2.53
2023-01-27T10:17:55.213Z,2.42
2023-01-27T10:20:35.992Z,2.39
2023-01-27T10:23:37.410Z,2.24
2023-01-27T10:26:23.181Z,2.06
2023-01-27T10:29:01.913Z,2.12
2023-01-27T10:31:41.905Z,2.17
2023-01-27T10:34:24.317Z,2.07
2023-01-27T10:37:20.480Z,2.38
2023-01-27T10:40:04.134Z,2.24
2023-01-27T10:42:51.581Z,2.24
2023-01-27T10:45:33.345Z,2.24
2023-01-27T10:48:23.264Z,2.41
2023-01-27T10:51:22.036Z,2.52
2023-01-27T10:53:58.474Z,2.56
2023-01-27T10:56:48.910Z,2.76
2023-01-27T10:59:26.550Z,2.72
2023-01-27T11:02:00.437Z,2.55
2023-01-27T11:04:36.855Z,2.54
2023-01-27T11:07:05.385Z,2.40
2023-01-27T11:09:35.857Z,2.50
2023-01-27T11:12:10.600Z,2.47
2023-01-27T11:14:49.249Z,2.33
2023-01-27T11:17:42.861Z,2.39
2023-01-27T11:20:48.126Z,2.37
2023-01-27T11:23:28.118Z,2.39
2023-01-27T11:26:08.613Z,2.37
2023-01-27T11:29:10.517Z,2.44
2023-01-27T11:31:38.026Z,2.36
2023-01-27T11:34:53.213Z,2.62
2023-01-27T11:37:23.314Z,2.61
2023-01-27T11:39:49.875Z,2.52
2023-01-27T11:42:17.226Z,2.42
2023-01-27T11:44:44.753Z,2.38
2023-01-27T11:47:23.556Z,2.51
2023-01-27T11:49:52.701Z,2.81
2023-01-27T11:52:22.351Z,2.74
2023-01-27T11:55:26.821Z,2.40
2023-01-27T11:58:10.346Z,2.55
2023-01-27T12:00:47.632Z,2.78
2023-01-27T12:03:31.145Z,2.86
2023-01-27T12:06:04.551Z,2.89
2023-01-27T12:08:38.437Z,2.75
2023-01-27T12:11:23.439Z,2.41
2023-01-27T12:13:58.581Z,2.91
2023-01-27T12:16:35.850Z,2.40
2023-01-27T12:19:06.254Z,2.42
2023-01-27T12:21:47.115Z,2.59
2023-01-27T12:24:23.402Z,2.59
2023-01-27T12:26:52.246Z,2.45
2023-01-27T12:29:40.250Z,2.50
2023-01-27T12:32:20.919Z,2.36
2023-01-27T12:34:56.277Z,2.31
2023-01-27T12:37:31.676Z,2.35
2023-01-27T12:40:05.018Z,2.39
2023-01-27T12:42:39.677Z,2.41
2023-01-27T12:45:35.142Z,2.50
2023-01-27T12:48:07.694Z,2.72
2023-01-27T12:50:35.503Z,2.55
2023-01-27T12:53:06.174Z,2.45
2023-01-27T12:55:36.538Z,2.61
2023-01-27T12:58:03.657Z,2.73
2023-01-27T13:00:31.025Z,2.65
2023-01-27T13:03:07.083Z,2.67
2023-01-27T13:05:43.386Z,2.44
2023-01-27T13:08:18.846Z,2.40
2023-01-27T13:11:00.859Z,2.55
2023-01-27T13:13:29.473Z,2.61
2023-01-27T13:16:04.385Z,2.51
2023-01-27T13:18:42.534Z,2.45
2023-01-27T13:21:20.685Z,2.47
2023-01-27T13:23:48.432Z,2.42
2023-01-27T13:26:22.523Z,2.23
2023-01-27T13:29:11.500Z,2.52
2023-01-27T13:31:50.830Z,2.60
2023-01-27T13:34:41.290Z,2.51
2023-01-27T13:37:10.839Z,2.33
2023-01-27T13:40:05.073Z,2.37
2023-01-27T13:42:49.633Z,2.56
2023-01-27T13:45:21.884Z,2.59
2023-01-27T13:47:56.978Z,2.62
2023-01-27T13:50:30.419Z,2.46
2023-01-27T13:52:59.098Z,2.70
2023-01-27T13:56:04.731Z,2.65
2023-01-27T13:58:49.478Z,2.70
2023-01-27T14:01:32.227Z,2.84
2023-01-27T14:04:17.339Z,2.69
2023-01-27T14:06:59.916Z,2.82
2023-01-27T14:09:41.593Z,2.72
2023-01-27T14:12:26.505Z,2.77
2023-01-27T14:15:27.206Z,2.58
2023-01-27T14:18:05.424Z,2.73
2023-01-27T14:20:43.493Z,2.81
2023-01-27T14:23:13.231Z,3.17
2023-01-27T14:26:01.381Z,2.84
2023-01-27T14:28:33.681Z,2.92
2023-01-27T14:31:10.930Z,2.93
2023-01-27T14:33:57.714Z,2.96
2023-01-27T14:36:34.618Z,3.12
2023-01-27T14:39:29.348Z,2.75
2023-01-27T14:42:14.092Z,2.83
2023-01-27T14:45:15.829Z,2.83
2023-01-27T14:48:00.492Z,2.77
2023-01-27T14:50:35.455Z,2.76
2023-01-27T14:53:15.059Z,2.63
2023-01-27T14:55:50.651Z,2.60
2023-01-27T14:58:26.100Z,2.75
2023-01-27T15:01:14.574Z,2.68
2023-01-27T15:04:08.057Z,2.83
2023-01-27T15:06:48.086Z,3.09
2023-01-27T15:09:33.379Z,2.96
2023-01-27T15:12:31.637Z,3.16
2023-01-27T15:15:37.589Z,3.18
2023-01-27T15:18:11.735Z,3.27
2023-01-27T15:20:48.566Z,3.07
2023-01-27T15:23:18.200Z,3.12
2023-01-27T15:25:50.089Z,2.96
2023-01-27T15:28:21.024Z,2.94
2023-01-27T15:31:15.598Z,3.28
2023-01-27T15:34:03.602Z,2.96
2023-01-27T15:36:34.717Z,2.82
2023-01-27T15:39:40.317Z,2.87
2023-01-27T15:42:11.374Z,3.04
2023-01-27T15:44:41.554Z,3.16
2023-01-27T15:47:37.165Z,3.02
2023-01-27T15:50:27.269Z,2.99
2023-01-27T15:53:01.753Z,3.11
2023-01-27T15:55:32.056Z,3.09
2023-01-27T15:58:06.352Z,3.01
2023-01-27T16:00:49.441Z,2.93
2023-01-27T16:03:23.548Z,3.04
2023-01-27T16:05:53.724Z,2.95
2023-01-27T16:08:20.982Z,2.73
2023-01-27T16:10:47.646Z,3.00
2023-01-27T16:13:30.376Z,2.83
2023-01-27T16:16:19.032Z,2.80
2023-01-27T16:19:11.862Z,2.95
2023-01-27T16:21:57.506Z,2.88
2023-01-27T16:24:36.176Z,2.95
2023-01-27T16:27:18.044Z,3.04
2023-01-27T16:29:55.722Z,3.05
2023-01-27T16:32:22.578Z,3.30
2023-01-27T16:34:58.333Z,2.95
2023-01-27T16:37:30.550Z,2.89
2023-01-27T16:40:22.775Z,2.90
2023-01-27T16:42:56.553Z,3.05
2023-01-27T16:45:31.092Z,3.11
2023-01-27T16:48:04.285Z,3.28
2023-01-27T16:50:36.724Z,3.13
2023-01-27T16:53:05.740Z,3.10
2023-01-27T16:55:32.383Z,3.05
2023-01-27T16:58:01.652Z,3.01
2023-01-27T17:00:37.068Z,3.00
2023-01-27T17:03:13.715Z,3.08
2023-01-27T17:05:43.041Z,3.37
2023-01-27T17:08:25.729Z,3.43
2023-01-27T17:10:56.304Z,3.28
2023-01-27T17:13:44.612Z,3.11
2023-01-27T17:16:20.664Z,2.85
2023-01-27T17:18:52.792Z,2.88
2023-01-27T17:21:39.354Z,2.92
2023-01-27T17:24:19.480Z,2.93
2023-01-27T17:26:49.820Z,2.92
2023-01-27T17:29:22.116Z,3.02
2023-01-27T17:31:49.840Z,3.23
2023-01-27T17:34:19.591Z,2.91
2023-01-27T17:37:05.812Z,2.94
2023-01-27T17:39:32.851Z,3.09
2023-01-27T17:42:01.606Z,3.04
2023-01-27T17:44:28.449Z,3.11
2023-01-27T17:46:55.066Z,3.22
2023-01-27T17:49:21.607Z,3.37
2023-01-27T17:51:51.887Z,3.11
2023-01-27T17:54:24.976Z,3.05
2023-01-27T17:56:59.285Z,2.95
2023-01-27T17:59:26.785Z,3.17
2023-01-27T18:01:54.826Z,3.12
2023-01-27T18:04:25.365Z,3.00
2023-01-27T18:06:52.580Z,2.80
2023-01-27T18:09:28.100Z,3.14
2023-01-27T18:12:01.258Z,3.29
2023-01-27T18:14:33.663Z,3.13
2023-01-27T18:17:04.555Z,3.08
2023-01-27T18:19:31.788Z,3.23
2023-01-27T18:22:13.144Z,3.15
2023-01-27T18:24:40.476Z,3.00
2023-01-27T18:27:23.099Z,3.06
2023-01-27T18:29:53.071Z,2.87
2023-01-27T18:32:25.971Z,2.87
2023-01-27T18:34:58.115Z,2.99
2023-01-27T18:37:28.710Z,3.12
2023-01-27T18:39:57.177Z,2.90
2023-01-27T18:42:25.281Z,2.87
2023-01-27T18:44:53.178Z,2.83
2023-01-27T18:47:19.681Z,2.78
2023-01-27T18:49:53.642Z,2.86
2023-01-27T18:52:20.890Z,2.75
2023-01-27T18:54:47.536Z,2.96
2023-01-27T18:57:14.232Z,2.86
2023-01-27T18:59:40.841Z,2.88
2023-01-27T19:02:18.281Z,3.05
2023-01-27T19:04:45.304Z,3.09
2023-01-27T19:07:13.887Z,3.09
2023-01-27T19:09:40.425Z,3.07
2023-01-27T19:12:07.122Z,3.08
2023-01-27T19:14:34.909Z,3.10
2023-01-27T19:17:01.683Z,3.09
2023-01-27T19:19:28.462Z,3.34
2023-01-27T19:21:54.996Z,3.36
2023-01-27T19:24:21.523Z,3.45
2023-01-27T19:26:49.095Z,3.46
2023-01-27T19:29:15.554Z,3.20
2023-01-27T19:31:42.052Z,3.09
2023-01-27T19:34:10.787Z,3.11
2023-01-27T19:36:42.296Z,3.29
2023-01-27T19:39:09.145Z,3.19
2023-01-27T19:41:36.015Z,3.27
2023-01-27T19:44:03.396Z,3.14
2023-01-27T19:46:30.058Z,3.36
2023-01-27T19:48:56.705Z,3.28
2023-01-27T19:51:24.192Z,3.22
2023-01-27T19:53:50.768Z,3.32
2023-01-27T19:56:20.128Z,3.09
2023-01-27T19:58:51.381Z,2.99
2023-01-27T20:01:18.963Z,3.05
2023-01-27T20:03:45.596Z,2.89
2023-01-27T20:06:18.528Z,2.94
2023-01-27T20:08:45.315Z,2.89
2023-01-27T20:11:30.815Z,2.99
2023-01-27T20:13:57.549Z,3.28
2023-01-27T20:16:25.674Z,2.96
2023-01-27T20:18:53.728Z,2.97
2023-01-27T20:21:20.963Z,2.88
2023-01-27T20:23:47.703Z,2.76
2023-01-27T20:26:16.976Z,2.78
2023-01-27T20:28:44.382Z,3.01
2023-01-27T20:31:16.099Z,3.08
2023-01-27T20:33:43.101Z,2.98
2023-01-27T20:36:16.732Z,3.10
2023-01-27T20:38:44.241Z,2.90
2023-01-27T20:41:14.469Z,3.12
2023-01-27T20:43:40.998Z,3.29
2023-01-27T20:46:11.819Z,3.46
2023-01-27T20:48:38.868Z,3.11
2023-01-27T20:51:08.229Z,3.32
2023-01-27T20:53:37.211Z,2.98
2023-01-27T20:56:04.358Z,2.86
2023-01-27T20:58:31.175Z,2.81
2023-01-27T21:01:27.476Z,2.81
2023-01-27T21:03:53.997Z,2.80
2023-01-27T21:06:20.645Z,2.91
2023-01-27T21:08:49.869Z,2.95
2023-01-27T21:11:18.434Z,3.01
2023-01-27T21:13:45.409Z,2.95
2023-01-27T21:16:12.478Z,2.90
2023-01-27T21:18:39.288Z,3.00
2023-01-27T21:21:06.320Z,3.21
2023-01-27T21:23:34.499Z,3.07
2023-01-27T21:26:06.245Z,2.89
2023-01-27T21:28:33.917Z,2.76
2023-01-27T21:31:08.326Z,2.92
2023-01-27T21:33:36.375Z,2.77
2023-01-27T21:36:03.925Z,2.76
2023-01-27T21:38:31.572Z,2.66
2023-01-27T21:41:13.146Z,2.60
2023-01-27T21:43:58.382Z,2.86
2023-01-27T21:46:25.011Z,2.93
2023-01-27T21:48:51.584Z,2.81
2023-01-27T21:51:18.184Z,2.71
2023-01-27T21:53:44.761Z,2.70
2023-01-27T21:56:11.887Z,2.88
2023-01-27T21:58:38.626Z,2.87
2023-01-27T22:01:09.758Z,3.08
2023-01-27T22:03:37.254Z,3.16
2023-01-27T22:06:08.684Z,2.85
2023-01-27T22:08:37.166Z,2.64
2023-01-27T22:11:11.558Z,2.83
2023-01-27T22:13:38.910Z,2.76
2023-01-27T22:16:05.967Z,2.80
2023-01-27T22:18:32.802Z,2.77
2023-01-27T22:21:02.565Z,2.72
2023-01-27T22:23:29.143Z,2.83
2023-01-27T22:25:55.804Z,2.68
2023-01-27T22:28:26.601Z,2.53
2023-01-27T22:30:53.471Z,2.60
2023-01-27T22:33:20.188Z,2.66
2023-01-27T22:35:46.704Z,2.76
2023-01-27T22:38:13.331Z,2.73
2023-01-27T22:40:40.167Z,2.77
2023-01-27T22:43:10.098Z,2.93
2023-01-27T22:45:40.071Z,2.84
2023-01-27T22:48:08.904Z,2.95
2023-01-27T22:50:36.434Z,2.75
2023-01-27T22:53:04.110Z,2.81
2023-01-27T22:55:30.725Z,2.78
2023-01-27T22:57:57.284Z,2.91
2023-01-27T23:00:23.887Z,2.70
2023-01-27T23:02:50.591Z,2.52
2023-01-27T23:05:17.486Z,2.57
2023-01-27T23:07:44.113Z,2.60
2023-01-27T23:10:11.000Z,2.74
2023-01-27T23:12:37.566Z,2.86
2023-01-27T23:15:04.527Z,2.69
2023-01-27T23:17:31.193Z,2.64
2023-01-27T23:19:57.716Z,2.63
2023-01-27T23:22:24.279Z,2.64
2023-01-27T23:24:51.194Z,2.68
2023-01-27T23:27:17.921Z,2.64
2023-01-27T23:29:44.451Z,2.50
2023-01-27T23:32:11.148Z,2.61
2023-01-27T23:34:37.652Z,2.54
2023-01-27T23:37:04.212Z,2.58
2023-01-27T23:39:30.911Z,2.47
2023-01-27T23:41:57.443Z,2.41
2023-01-27T23:44:23.934Z,2.44
2023-01-27T23:46:50.575Z,2.63
2023-01-27T23:49:17.112Z,2.77
2023-01-27T23:51:43.625Z,2.71
2023-01-27T23:54:10.364Z,2.56
2023-01-27T23:56:36.871Z,2.52
2023-01-27T23:59:03.445Z,2.52
